Terminal Aerodrome Forecast
Issued by NWS

Home | Current Version | Previous Version | Text Only | Print | Product List | Glossary On
Versions: 1 2 3 4 5 6 7 8 9 10 11 12 13 14 15 16 17 18
000
FTUS45 KFGZ 031734
TAFGCN
TAF
KGCN 031734Z 0318/0418 22010G17KT P6SM SCT080 BKN090
      TEMPO 0318/0322 VRB15G25KT -TSRA BKN060CB
     FM040200 VRB03KT P6SM BKN080=

USA.gov is the U.S. government's official web portal to all federal, state and local government web resources and services.